sensor_id;sensor_type;location;lat;lon;timestamp;pressure;altitude;pressure_sealevel;temperature;humidity
68107;BME280;54892;47.488;19.026;2023-05-11T00:01:09;100095.25;;;13.89;53.58
68107;BME280;54892;47.488;19.026;2023-05-11T00:04:13;100085.47;;;13.89;52.99
68107;BME280;54892;47.488;19.026;2023-05-11T00:07:16;100088.88;;;13.90;52.94
68107;BME280;54892;47.488;19.026;2023-05-11T00:10:19;100077.25;;;13.85;52.81
68107;BME280;54892;47.488;19.026;2023-05-11T00:13:22;100085.47;;;13.84;53.14
68107;BME280;54892;47.488;19.026;2023-05-11T00:16:25;100080.47;;;13.82;54.20
68107;BME280;54892;47.488;19.026;2023-05-11T00:19:29;100085.22;;;13.85;54.38
68107;BME280;54892;47.488;19.026;2023-05-11T00:22:32;100079.94;;;13.80;54.71
68107;BME280;54892;47.488;19.026;2023-05-11T00:25:35;100081.03;;;13.74;54.52
68107;BME280;54892;47.488;19.026;2023-05-11T00:28:39;100084.75;;;13.73;55.29
68107;BME280;54892;47.488;19.026;2023-05-11T00:31:42;100086.31;;;13.74;55.17
68107;BME280;54892;47.488;19.026;2023-05-11T00:34:49;100080.50;;;13.72;54.69
68107;BME280;54892;47.488;19.026;2023-05-11T00:37:52;100085.31;;;13.70;54.59
68107;BME280;54892;47.488;19.026;2023-05-11T00:40:55;100072.84;;;13.65;54.76
68107;BME280;54892;47.488;19.026;2023-05-11T00:43:58;100074.19;;;13.63;55.55
68107;BME280;54892;47.488;19.026;2023-05-11T00:47:01;100072.03;;;13.70;55.39
68107;BME280;54892;47.488;19.026;2023-05-11T00:50:06;100068.81;;;13.73;55.98
68107;BME280;54892;47.488;19.026;2023-05-11T00:53:10;100066.53;;;13.56;56.60
68107;BME280;54892;47.488;19.026;2023-05-11T00:56:13;100069.97;;;13.57;56.46
68107;BME280;54892;47.488;19.026;2023-05-11T00:59:16;100070.47;;;13.64;56.58
68107;BME280;54892;47.488;19.026;2023-05-11T01:02:19;100067.31;;;13.62;56.53
68107;BME280;54892;47.488;19.026;2023-05-11T01:05:24;100063.03;;;13.66;56.94
68107;BME280;54892;47.488;19.026;2023-05-11T01:08:30;100062.50;;;13.69;56.87
68107;BME280;54892;47.488;19.026;2023-05-11T01:11:36;100064.88;;;13.70;57.44
68107;BME280;54892;47.488;19.026;2023-05-11T01:14:44;100063.53;;;13.73;56.82
68107;BME280;54892;47.488;19.026;2023-05-11T01:17:51;100063.28;;;13.69;56.67
68107;BME280;54892;47.488;19.026;2023-05-11T01:20:58;100068.28;;;13.76;56.68
68107;BME280;54892;47.488;19.026;2023-05-11T01:24:08;100070.41;;;13.74;56.85
68107;BME280;54892;47.488;19.026;2023-05-11T01:27:22;100063.00;;;13.71;57.37
68107;BME280;54892;47.488;19.026;2023-05-11T01:30:35;100065.38;;;13.78;57.69
68107;BME280;54892;47.488;19.026;2023-05-11T01:33:43;100065.59;;;13.81;57.58
68107;BME280;54892;47.488;19.026;2023-05-11T01:36:50;100069.84;;;13.82;57.38
68107;BME280;54892;47.488;19.026;2023-05-11T01:39:54;100066.38;;;13.87;57.25
68107;BME280;54892;47.488;19.026;2023-05-11T01:43:00;100071.06;;;13.95;56.75
68107;BME280;54892;47.488;19.026;2023-05-11T01:46:05;100066.78;;;14.05;55.98
68107;BME280;54892;47.488;19.026;2023-05-11T01:49:09;100060.63;;;14.09;55.63
68107;BME280;54892;47.488;19.026;2023-05-11T01:52:13;100059.06;;;14.08;55.47
68107;BME280;54892;47.488;19.026;2023-05-11T01:55:18;100062.75;;;14.12;55.28
68107;BME280;54892;47.488;19.026;2023-05-11T01:58:22;100064.59;;;14.12;55.22
68107;BME280;54892;47.488;19.026;2023-05-11T02:01:27;100066.72;;;14.10;55.07
68107;BME280;54892;47.488;19.026;2023-05-11T02:04:31;100063.81;;;14.11;54.85
68107;BME280;54892;47.488;19.026;2023-05-11T02:07:34;100060.09;;;14.12;54.73
68107;BME280;54892;47.488;19.026;2023-05-11T02:10:38;100055.81;;;14.16;54.55
68107;BME280;54892;47.488;19.026;2023-05-11T02:13:42;100052.72;;;14.04;54.72
68107;BME280;54892;47.488;19.026;2023-05-11T02:16:47;100056.72;;;14.01;55.19
68107;BME280;54892;47.488;19.026;2023-05-11T02:19:51;100055.34;;;14.04;54.87
68107;BME280;54892;47.488;19.026;2023-05-11T02:22:55;100046.84;;;14.07;54.71
68107;BME280;54892;47.488;19.026;2023-05-11T02:25:59;100039.97;;;14.06;54.87
68107;BME280;54892;47.488;19.026;2023-05-11T02:29:03;100050.34;;;14.03;54.92
68107;BME280;54892;47.488;19.026;2023-05-11T02:32:08;100047.44;;;13.99;54.94
68107;BME280;54892;47.488;19.026;2023-05-11T02:35:12;100044.22;;;14.02;54.39
68107;BME280;54892;47.488;19.026;2023-05-11T02:38:17;100042.66;;;14.01;54.45
68107;BME280;54892;47.488;19.026;2023-05-11T02:41:23;100037.91;;;13.98;55.14
68107;BME280;54892;47.488;19.026;2023-05-11T02:44:31;100041.09;;;14.00;54.34
68107;BME280;54892;47.488;19.026;2023-05-11T02:47:38;100039.81;;;13.92;54.97
68107;BME280;54892;47.488;19.026;2023-05-11T02:50:43;100038.75;;;13.93;55.07
68107;BME280;54892;47.488;19.026;2023-05-11T02:53:46;100038.00;;;13.82;55.39
68107;BME280;54892;47.488;19.026;2023-05-11T02:56:50;100033.78;;;13.76;56.02
68107;BME280;54892;47.488;19.026;2023-05-11T02:59:54;100030.16;;;13.67;56.39
68107;BME280;54892;47.488;19.026;2023-05-11T03:02:58;100032.81;;;13.62;56.95
68107;BME280;54892;47.488;19.026;2023-05-11T03:06:01;100034.00;;;13.35;58.29
68107;BME280;54892;47.488;19.026;2023-05-11T03:09:05;100039.53;;;13.38;58.25
68107;BME280;54892;47.488;19.026;2023-05-11T03:12:09;100028.16;;;13.38;58.26
68107;BME280;54892;47.488;19.026;2023-05-11T03:15:13;100029.00;;;13.28;58.84
68107;BME280;54892;47.488;19.026;2023-05-11T03:18:18;100028.25;;;13.17;59.63
68107;BME280;54892;47.488;19.026;2023-05-11T03:21:21;100040.97;;;13.15;59.95
68107;BME280;54892;47.488;19.026;2023-05-11T03:24:25;100044.41;;;13.16;59.58
68107;BME280;54892;47.488;19.026;2023-05-11T03:27:28;100040.63;;;14.52;66.25
68107;BME280;54892;47.488;19.026;2023-05-11T03:30:31;100041.78;;;16.19;65.33
68107;BME280;54892;47.488;19.026;2023-05-11T03:33:36;100042.28;;;17.10;60.14
68107;BME280;54892;47.488;19.026;2023-05-11T03:36:40;100045.28;;;16.95;56.71
68107;BME280;54892;47.488;19.026;2023-05-11T03:39:44;100049.47;;;16.21;50.66
68107;BME280;54892;47.488;19.026;2023-05-11T03:42:48;100048.16;;;15.42;52.26
68107;BME280;54892;47.488;19.026;2023-05-11T03:45:52;100047.91;;;15.00;53.00
68107;BME280;54892;47.488;19.026;2023-05-11T03:48:56;100045.88;;;14.62;53.27
68107;BME280;54892;47.488;19.026;2023-05-11T03:52:00;100051.91;;;14.38;54.10
68107;BME280;54892;47.488;19.026;2023-05-11T03:55:04;100057.63;;;14.21;54.34
68107;BME280;54892;47.488;19.026;2023-05-11T03:58:08;100047.91;;;14.06;54.88
68107;BME280;54892;47.488;19.026;2023-05-11T04:01:11;100054.28;;;14.05;54.74
68107;BME280;54892;47.488;19.026;2023-05-11T04:04:15;100056.50;;;13.93;55.18
68107;BME280;54892;47.488;19.026;2023-05-11T04:07:18;100056.59;;;13.82;55.84
68107;BME280;54892;47.488;19.026;2023-05-11T04:10:21;100059.25;;;13.77;56.01
68107;BME280;54892;47.488;19.026;2023-05-11T04:13:24;100051.81;;;13.79;55.83
68107;BME280;54892;47.488;19.026;2023-05-11T04:16:27;100050.78;;;13.75;56.04
68107;BME280;54892;47.488;19.026;2023-05-11T04:19:32;100062.75;;;13.67;56.26
68107;BME280;54892;47.488;19.026;2023-05-11T04:22:35;100073.12;;;13.69;55.91
68107;BME280;54892;47.488;19.026;2023-05-11T04:25:38;100057.53;;;13.52;57.01
68107;BME280;54892;47.488;19.026;2023-05-11T04:28:41;100068.44;;;13.50;56.55
68107;BME280;54892;47.488;19.026;2023-05-11T04:31:44;100085.94;;;13.46;56.52
68107;BME280;54892;47.488;19.026;2023-05-11T04:34:48;100079.34;;;13.44;56.72
68107;BME280;54892;47.488;19.026;2023-05-11T04:37:51;100080.63;;;13.51;55.91
68107;BME280;54892;47.488;19.026;2023-05-11T04:40:54;100074.78;;;13.49;55.70
68107;BME280;54892;47.488;19.026;2023-05-11T04:43:57;100085.34;;;13.60;55.53
68107;BME280;54892;47.488;19.026;2023-05-11T04:47:00;100086.94;;;13.61;55.39
68107;BME280;54892;47.488;19.026;2023-05-11T04:50:05;100085.84;;;13.67;55.36
68107;BME280;54892;47.488;19.026;2023-05-11T04:53:08;100083.44;;;13.70;55.07
68107;BME280;54892;47.488;19.026;2023-05-11T04:56:11;100084.72;;;13.78;54.73
68107;BME280;54892;47.488;19.026;2023-05-11T04:59:14;100083.66;;;13.79;54.91
68107;BME280;54892;47.488;19.026;2023-05-11T05:02:17;100092.97;;;13.77;54.84
68107;BME280;54892;47.488;19.026;2023-05-11T05:05:21;100087.13;;;13.75;55.07
68107;BME280;54892;47.488;19.026;2023-05-11T05:08:24;100091.06;;;13.82;54.95
68107;BME280;54892;47.488;19.026;2023-05-11T05:11:27;100089.50;;;13.76;54.36
68107;BME280;54892;47.488;19.026;2023-05-11T05:14:30;100088.19;;;13.74;53.58
68107;BME280;54892;47.488;19.026;2023-05-11T05:17:33;100086.06;;;13.76;54.07
68107;BME280;54892;47.488;19.026;2023-05-11T05:20:37;100086.94;;;13.61;55.07
68107;BME280;54892;47.488;19.026;2023-05-11T05:23:41;100092.16;;;13.76;54.24
68107;BME280;54892;47.488;19.026;2023-05-11T05:26:44;100101.69;;;13.82;51.54
68107;BME280;54892;47.488;19.026;2023-05-11T05:29:47;100099.13;;;13.67;50.62
68107;BME280;54892;47.488;19.026;2023-05-11T05:32:51;100096.47;;;13.62;51.39
68107;BME280;54892;47.488;19.026;2023-05-11T05:35:56;100100.66;;;13.73;51.47
68107;BME280;54892;47.488;19.026;2023-05-11T05:38:59;100097.44;;;13.81;50.08
68107;BME280;54892;47.488;19.026;2023-05-11T05:42:04;100099.47;;;13.95;49.59
68107;BME280;54892;47.488;19.026;2023-05-11T05:45:08;100100.75;;;14.03;49.60
68107;BME280;54892;47.488;19.026;2023-05-11T05:48:12;100107.91;;;14.07;49.30
68107;BME280;54892;47.488;19.026;2023-05-11T05:51:16;100102.34;;;14.04;50.02
68107;BME280;54892;47.488;19.026;2023-05-11T05:54:19;100103.03;;;14.20;48.63
68107;BME280;54892;47.488;19.026;2023-05-11T05:57:22;100114.91;;;14.27;48.42
68107;BME280;54892;47.488;19.026;2023-05-11T06:00:25;100110.34;;;14.33;48.37
68107;BME280;54892;47.488;19.026;2023-05-11T06:03:28;100115.63;;;14.38;49.34
68107;BME280;54892;47.488;19.026;2023-05-11T06:06:32;100116.59;;;14.53;48.92
68107;BME280;54892;47.488;19.026;2023-05-11T06:09:35;100113.28;;;14.71;48.31
68107;BME280;54892;47.488;19.026;2023-05-11T06:12:39;100103.88;;;14.84;49.62
68107;BME280;54892;47.488;19.026;2023-05-11T06:15:42;100116.25;;;14.94;48.38
68107;BME280;54892;47.488;19.026;2023-05-11T06:18:45;100112.47;;;15.00;49.16
68107;BME280;54892;47.488;19.026;2023-05-11T06:21:49;100113.09;;;14.92;48.60
68107;BME280;54892;47.488;19.026;2023-05-11T06:24:52;100108.97;;;15.05;49.31
68107;BME280;54892;47.488;19.026;2023-05-11T06:27:55;100110.88;;;14.99;48.85
68107;BME280;54892;47.488;19.026;2023-05-11T09:40:41;100016.13;;;20.00;35.51
68107;BME280;54892;47.488;19.026;2023-05-11T09:43:44;100016.13;;;20.00;35.51
68107;BME280;54892;47.488;19.026;2023-05-11T09:46:51;100005.72;;;19.28;35.88
68107;BME280;54892;47.488;19.026;2023-05-11T09:49:55;100015.19;;;19.34;37.43
68107;BME280;54892;47.488;19.026;2023-05-11T09:52:58;100015.97;;;19.52;35.42
68107;BME280;54892;47.488;19.026;2023-05-11T09:56:03;100016.75;;;19.44;36.33
68107;BME280;54892;47.488;19.026;2023-05-11T09:59:06;100016.78;;;19.53;35.99
68107;BME280;54892;47.488;19.026;2023-05-11T10:02:20;99994.53;;;19.70;34.80
68107;BME280;54892;47.488;19.026;2023-05-11T10:05:24;100000.84;;;19.74;35.23
68107;BME280;54892;47.488;19.026;2023-05-11T10:08:28;99996.91;;;19.71;34.26
68107;BME280;54892;47.488;19.026;2023-05-11T10:11:34;99989.69;;;19.89;34.07
68107;BME280;54892;47.488;19.026;2023-05-11T10:14:37;99991.25;;;19.90;32.61
68107;BME280;54892;47.488;19.026;2023-05-11T10:17:41;99985.25;;;19.76;33.10
68107;BME280;54892;47.488;19.026;2023-05-11T10:20:46;99984.47;;;19.67;33.48
68107;BME280;54892;47.488;19.026;2023-05-11T10:23:51;99998.78;;;19.80;33.59
68107;BME280;54892;47.488;19.026;2023-05-11T10:26:56;99982.12;;;19.56;34.02
68107;BME280;54892;47.488;19.026;2023-05-11T10:30:01;99993.91;;;19.82;33.41
68107;BME280;54892;47.488;19.026;2023-05-11T10:33:05;99988.22;;;19.83;33.29
68107;BME280;54892;47.488;19.026;2023-05-11T10:36:09;99978.13;;;19.98;32.81
68107;BME280;54892;47.488;19.026;2023-05-11T10:39:12;99986.97;;;20.07;33.84
68107;BME280;54892;47.488;19.026;2023-05-11T10:42:59;99975.59;;;20.10;32.57
68107;BME280;54892;47.488;19.026;2023-05-11T10:46:17;99972.53;;;20.29;32.34
68107;BME280;54892;47.488;19.026;2023-05-11T10:49:40;99968.13;;;20.24;31.73
68107;BME280;54892;47.488;19.026;2023-05-11T10:53:00;99973.53;;;20.16;33.61
68107;BME280;54892;47.488;19.026;2023-05-11T10:56:18;99969.94;;;20.03;32.16
68107;BME280;54892;47.488;19.026;2023-05-11T10:59:53;99971.53;;;19.86;33.06
68107;BME280;54892;47.488;19.026;2023-05-11T11:03:09;99966.03;;;19.83;33.58
68107;BME280;54892;47.488;19.026;2023-05-11T11:06:20;99957.88;;;20.27;32.79
68107;BME280;54892;47.488;19.026;2023-05-11T11:09:25;99938.53;;;20.12;32.94
68107;BME280;54892;47.488;19.026;2023-05-11T11:12:28;99947.66;;;20.20;32.83
68107;BME280;54892;47.488;19.026;2023-05-11T11:16:10;99951.19;;;20.03;33.23
68107;BME280;54892;47.488;19.026;2023-05-11T11:19:36;99949.75;;;20.05;33.88
68107;BME280;54892;47.488;19.026;2023-05-11T11:22:44;99956.66;;;20.15;31.55
68107;BME280;54892;47.488;19.026;2023-05-11T11:25:50;99950.88;;;19.96;33.45
68107;BME280;54892;47.488;19.026;2023-05-11T11:29:12;99944.75;;;19.95;32.29
68107;BME280;54892;47.488;19.026;2023-05-11T11:32:26;99949.63;;;20.02;31.48
68107;BME280;54892;47.488;19.026;2023-05-11T11:35:45;99937.50;;;19.87;32.57
68107;BME280;54892;47.488;19.026;2023-05-11T11:38:56;99936.56;;;19.91;31.94
68107;BME280;54892;47.488;19.026;2023-05-11T11:42:01;99941.72;;;20.05;33.07
68107;BME280;54892;47.488;19.026;2023-05-11T11:45:25;99940.75;;;20.10;33.16
68107;BME280;54892;47.488;19.026;2023-05-11T11:48:31;99926.16;;;19.90;32.24
68107;BME280;54892;47.488;19.026;2023-05-11T11:51:35;99934.00;;;20.04;32.50
68107;BME280;54892;47.488;19.026;2023-05-11T11:54:42;99925.94;;;20.13;33.10
68107;BME280;54892;47.488;19.026;2023-05-11T11:57:45;99940.44;;;20.12;32.80
68107;BME280;54892;47.488;19.026;2023-05-11T12:00:52;99940.63;;;19.98;33.48
68107;BME280;54892;47.488;19.026;2023-05-11T12:04:19;99934.34;;;19.93;32.36
68107;BME280;54892;47.488;19.026;2023-05-11T12:07:31;99926.13;;;19.99;33.48
68107;BME280;54892;47.488;19.026;2023-05-11T12:10:35;99923.88;;;20.18;31.89
68107;BME280;54892;47.488;19.026;2023-05-11T12:13:41;99919.25;;;20.28;32.54
68107;BME280;54892;47.488;19.026;2023-05-11T12:16:59;99915.22;;;20.13;32.50
68107;BME280;54892;47.488;19.026;2023-05-11T12:20:15;99910.41;;;19.97;33.91
68107;BME280;54892;47.488;19.026;2023-05-11T12:23:19;99925.37;;;19.98;33.64
68107;BME280;54892;47.488;19.026;2023-05-11T12:26:23;99911.44;;;20.14;33.05
68107;BME280;54892;47.488;19.026;2023-05-11T12:29:27;99896.69;;;20.29;30.90
68107;BME280;54892;47.488;19.026;2023-05-11T12:32:30;99909.63;;;20.57;31.17
68107;BME280;54892;47.488;19.026;2023-05-11T12:35:35;99906.59;;;20.67;31.61
68107;BME280;54892;47.488;19.026;2023-05-11T12:38:44;99905.38;;;20.56;32.32
68107;BME280;54892;47.488;19.026;2023-05-11T12:41:48;99891.78;;;20.61;32.13
68107;BME280;54892;47.488;19.026;2023-05-11T12:44:53;99887.91;;;20.79;31.33
68107;BME280;54892;47.488;19.026;2023-05-11T12:47:56;99887.44;;;20.77;31.39
68107;BME280;54892;47.488;19.026;2023-05-11T12:51:01;99884.00;;;20.77;31.42
68107;BME280;54892;47.488;19.026;2023-05-11T12:54:04;99881.63;;;20.75;30.92
68107;BME280;54892;47.488;19.026;2023-05-11T12:57:21;99889.84;;;20.70;30.80
68107;BME280;54892;47.488;19.026;2023-05-11T13:00:25;99881.13;;;20.73;30.27
68107;BME280;54892;47.488;19.026;2023-05-11T13:03:30;99875.75;;;20.82;30.62
68107;BME280;54892;47.488;19.026;2023-05-11T13:06:35;99872.59;;;20.80;31.25
68107;BME280;54892;47.488;19.026;2023-05-11T13:09:39;99871.56;;;20.93;31.20
68107;BME280;54892;47.488;19.026;2023-05-11T13:12:50;99877.75;;;21.06;30.01
68107;BME280;54892;47.488;19.026;2023-05-11T13:15:53;99860.31;;;21.00;30.05
68107;BME280;54892;47.488;19.026;2023-05-11T13:18:57;99852.44;;;20.95;30.68
68107;BME280;54892;47.488;19.026;2023-05-11T13:22:02;99852.69;;;21.02;31.33
68107;BME280;54892;47.488;19.026;2023-05-11T13:25:07;99856.09;;;21.11;31.40
68107;BME280;54892;47.488;19.026;2023-05-11T13:28:10;99861.00;;;21.09;29.57
68107;BME280;54892;47.488;19.026;2023-05-11T13:31:14;99846.09;;;20.99;31.73
68107;BME280;54892;47.488;19.026;2023-05-11T13:34:17;99844.44;;;21.07;30.38
68107;BME280;54892;47.488;19.026;2023-05-11T13:37:23;99840.22;;;21.19;31.08
68107;BME280;54892;47.488;19.026;2023-05-11T13:40:27;99848.69;;;21.08;31.27
68107;BME280;54892;47.488;19.026;2023-05-11T13:43:30;99848.13;;;20.60;31.27
68107;BME280;54892;47.488;19.026;2023-05-11T13:46:34;99841.94;;;20.60;32.24
68107;BME280;54892;47.488;19.026;2023-05-11T13:49:37;99837.44;;;20.51;31.71
68107;BME280;54892;47.488;19.026;2023-05-11T13:52:42;99837.97;;;20.45;31.97
68107;BME280;54892;47.488;19.026;2023-05-11T13:55:45;99827.56;;;20.43;31.48
68107;BME280;54892;47.488;19.026;2023-05-11T13:58:48;99828.88;;;20.37;31.52
68107;BME280;54892;47.488;19.026;2023-05-11T14:01:52;99833.44;;;20.36;32.76
68107;BME280;54892;47.488;19.026;2023-05-11T14:04:56;99822.47;;;20.29;31.83
68107;BME280;54892;47.488;19.026;2023-05-11T14:08:01;99827.16;;;20.32;32.29
68107;BME280;54892;47.488;19.026;2023-05-11T14:11:05;99820.63;;;20.42;31.12
68107;BME280;54892;47.488;19.026;2023-05-11T14:14:09;99812.78;;;20.37;31.83
68107;BME280;54892;47.488;19.026;2023-05-11T14:17:12;99816.53;;;20.45;30.98
68107;BME280;54892;47.488;19.026;2023-05-11T14:20:15;99827.75;;;20.38;31.51
68107;BME280;54892;47.488;19.026;2023-05-11T14:23:20;99817.87;;;20.30;31.37
68107;BME280;54892;47.488;19.026;2023-05-11T14:26:23;99819.78;;;20.29;31.18
68107;BME280;54892;47.488;19.026;2023-05-11T14:29:27;99813.31;;;20.30;30.32
68107;BME280;54892;47.488;19.026;2023-05-11T14:32:30;99820.09;;;20.28;30.45
68107;BME280;54892;47.488;19.026;2023-05-11T14:35:34;99819.03;;;20.20;30.93
68107;BME280;54892;47.488;19.026;2023-05-11T14:38:40;99809.03;;;20.08;30.81
68107;BME280;54892;47.488;19.026;2023-05-11T14:41:43;99812.47;;;20.08;31.51
68107;BME280;54892;47.488;19.026;2023-05-11T14:44:46;99814.94;;;20.22;31.27
68107;BME280;54892;47.488;19.026;2023-05-11T14:47:50;99807.53;;;20.19;31.53
68107;BME280;54892;47.488;19.026;2023-05-11T14:50:54;99808.81;;;20.13;31.54
68107;BME280;54892;47.488;19.026;2023-05-11T14:53:59;99805.38;;;20.13;31.50
68107;BME280;54892;47.488;19.026;2023-05-11T14:57:02;99813.25;;;20.09;31.78
68107;BME280;54892;47.488;19.026;2023-05-11T15:00:06;99815.66;;;20.02;31.62
68107;BME280;54892;47.488;19.026;2023-05-11T15:03:09;99800.12;;;19.86;32.31
68107;BME280;54892;47.488;19.026;2023-05-11T15:06:13;99808.28;;;19.99;32.25
68107;BME280;54892;47.488;19.026;2023-05-11T15:09:23;99811.72;;;20.08;31.73
68107;BME280;54892;47.488;19.026;2023-05-11T15:12:26;99811.34;;;19.80;31.74
68107;BME280;54892;47.488;19.026;2023-05-11T15:15:29;99804.25;;;19.75;32.43
68107;BME280;54892;47.488;19.026;2023-05-11T15:18:33;99814.78;;;19.80;32.21
68107;BME280;54892;47.488;19.026;2023-05-11T15:21:37;99814.03;;;19.71;32.91
68107;BME280;54892;47.488;19.026;2023-05-11T15:24:41;99804.91;;;19.72;32.65
68107;BME280;54892;47.488;19.026;2023-05-11T15:27:44;99815.78;;;19.67;32.57
68107;BME280;54892;47.488;19.026;2023-05-11T15:30:48;99815.31;;;19.65;32.47
68107;BME280;54892;47.488;19.026;2023-05-11T15:33:52;99810.44;;;19.67;32.21
68107;BME280;54892;47.488;19.026;2023-05-11T15:36:55;99812.06;;;19.50;32.64
68107;BME280;54892;47.488;19.026;2023-05-11T15:40:01;99807.16;;;19.52;32.65
68107;BME280;54892;47.488;19.026;2023-05-11T15:43:04;99808.47;;;19.46;32.95
68107;BME280;54892;47.488;19.026;2023-05-11T15:46:08;99813.03;;;19.45;33.08
68107;BME280;54892;47.488;19.026;2023-05-11T15:49:11;99818.09;;;19.38;33.76
68107;BME280;54892;47.488;19.026;2023-05-11T15:52:14;99824.22;;;19.39;33.99
68107;BME280;54892;47.488;19.026;2023-05-11T15:55:19;99820.41;;;19.48;33.88
68107;BME280;54892;47.488;19.026;2023-05-11T15:58:23;99822.00;;;19.41;33.96
68107;BME280;54892;47.488;19.026;2023-05-11T16:01:26;99816.66;;;19.41;34.30
68107;BME280;54892;47.488;19.026;2023-05-11T16:04:29;99814.12;;;19.36;34.56
68107;BME280;54892;47.488;19.026;2023-05-11T16:07:32;99827.66;;;19.39;34.58
68107;BME280;54892;47.488;19.026;2023-05-11T16:10:37;99826.56;;;19.31;34.87
68107;BME280;54892;47.488;19.026;2023-05-11T16:13:40;99825.19;;;19.25;34.86
68107;BME280;54892;47.488;19.026;2023-05-11T16:16:43;99827.88;;;19.25;35.18
68107;BME280;54892;47.488;19.026;2023-05-11T16:19:47;99827.41;;;19.23;35.13
68107;BME280;54892;47.488;19.026;2023-05-11T16:22:50;99828.03;;;19.20;35.53
68107;BME280;54892;47.488;19.026;2023-05-11T16:25:55;99828.03;;;19.20;35.59
68107;BME280;54892;47.488;19.026;2023-05-11T16:28:58;99833.09;;;19.13;35.73
68107;BME280;54892;47.488;19.026;2023-05-11T16:32:01;99827.72;;;19.13;35.86
68107;BME280;54892;47.488;19.026;2023-05-11T16:35:04;99834.66;;;19.05;35.94
68107;BME280;54892;47.488;19.026;2023-05-11T16:38:14;99840.78;;;19.06;36.22
68107;BME280;54892;47.488;19.026;2023-05-11T16:41:19;99843.31;;;19.11;36.21
68107;BME280;54892;47.488;19.026;2023-05-11T16:44:21;99845.50;;;19.00;36.54
68107;BME280;54892;47.488;19.026;2023-05-11T16:47:25;99854.75;;;18.94;38.75
68107;BME280;54892;47.488;19.026;2023-05-11T16:50:28;99861.72;;;18.95;39.79
68107;BME280;54892;47.488;19.026;2023-05-11T16:53:31;99847.38;;;18.91;41.49
68107;BME280;54892;47.488;19.026;2023-05-11T16:56:36;99855.69;;;18.80;42.97
68107;BME280;54892;47.488;19.026;2023-05-11T16:59:39;99869.06;;;18.71;43.25
68107;BME280;54892;47.488;19.026;2023-05-11T17:02:42;99880.84;;;18.70;42.94
68107;BME280;54892;47.488;19.026;2023-05-11T17:05:45;99881.19;;;18.69;42.07
68107;BME280;54892;47.488;19.026;2023-05-11T17:08:49;99880.38;;;18.60;41.18
68107;BME280;54892;47.488;19.026;2023-05-11T17:11:54;99885.22;;;18.49;41.72
68107;BME280;54892;47.488;19.026;2023-05-11T17:14:56;99882.25;;;18.50;41.04
68107;BME280;54892;47.488;19.026;2023-05-11T17:18:00;99886.75;;;18.32;41.37
68107;BME280;54892;47.488;19.026;2023-05-11T17:21:03;99886.28;;;18.30;41.75
68107;BME280;54892;47.488;19.026;2023-05-11T17:24:06;99893.06;;;18.36;42.09
68107;BME280;54892;47.488;19.026;2023-05-11T17:27:11;99903.56;;;18.33;41.67
68107;BME280;54892;47.488;19.026;2023-05-11T17:30:14;99899.16;;;18.28;42.54
68107;BME280;54892;47.488;19.026;2023-05-11T17:33:18;99897.03;;;18.07;42.84
68107;BME280;54892;47.488;19.026;2023-05-11T17:36:21;99908.47;;;17.99;43.17
68107;BME280;54892;47.488;19.026;2023-05-11T17:39:25;99911.63;;;18.01;43.42
68107;BME280;54892;47.488;19.026;2023-05-11T17:42:30;99913.69;;;18.04;43.83
68107;BME280;54892;47.488;19.026;2023-05-11T17:45:34;99921.22;;;18.02;46.70
68107;BME280;54892;47.488;19.026;2023-05-11T17:48:37;99914.78;;;17.80;46.07
68107;BME280;54892;47.488;19.026;2023-05-11T17:51:41;99929.03;;;17.76;47.05
68107;BME280;54892;47.488;19.026;2023-05-11T17:54:44;99925.22;;;17.68;46.18
68107;BME280;54892;47.488;19.026;2023-05-11T17:57:48;99919.34;;;17.57;46.45
68107;BME280;54892;47.488;19.026;2023-05-11T18:00:52;99924.75;;;17.43;46.58
68107;BME280;54892;47.488;19.026;2023-05-11T18:03:56;99922.38;;;17.42;47.69
68107;BME280;54892;47.488;19.026;2023-05-11T18:07:00;99931.34;;;17.46;45.99
68107;BME280;54892;47.488;19.026;2023-05-11T18:10:06;99938.88;;;17.44;46.45
68107;BME280;54892;47.488;19.026;2023-05-11T18:13:10;99950.03;;;17.46;46.28
68107;BME280;54892;47.488;19.026;2023-05-11T18:16:15;99950.31;;;17.44;45.00
68107;BME280;54892;47.488;19.026;2023-05-11T18:19:18;99961.06;;;17.30;44.51
68107;BME280;54892;47.488;19.026;2023-05-11T18:22:21;99961.47;;;17.24;44.39
68107;BME280;54892;47.488;19.026;2023-05-11T18:25:25;99966.00;;;17.23;44.22
68107;BME280;54892;47.488;19.026;2023-05-11T18:28:33;99979.47;;;17.18;44.05
68107;BME280;54892;47.488;19.026;2023-05-11T18:31:37;99977.09;;;17.16;44.51
68107;BME280;54892;47.488;19.026;2023-05-11T18:34:40;99980.16;;;17.10;44.67
68107;BME280;54892;47.488;19.026;2023-05-11T18:37:44;99987.38;;;17.09;44.69
68107;BME280;54892;47.488;19.026;2023-05-11T18:40:48;99985.41;;;17.01;45.08
68107;BME280;54892;47.488;19.026;2023-05-11T18:43:53;99993.22;;;16.97;45.54
68107;BME280;54892;47.488;19.026;2023-05-11T18:46:56;99997.03;;;16.91;46.03
68107;BME280;54892;47.488;19.026;2023-05-11T18:50:00;100002.78;;;16.70;47.04
68107;BME280;54892;47.488;19.026;2023-05-11T18:53:04;100013.84;;;16.64;47.92
68107;BME280;54892;47.488;19.026;2023-05-11T18:56:07;100022.22;;;16.57;48.94
68107;BME280;54892;47.488;19.026;2023-05-11T18:59:13;100027.94;;;16.50;49.10
68107;BME280;54892;47.488;19.026;2023-05-11T19:02:16;100019.94;;;16.50;49.28
68107;BME280;54892;47.488;19.026;2023-05-11T19:05:19;100023.34;;;16.37;50.08
68107;BME280;54892;47.488;19.026;2023-05-11T19:08:23;100027.97;;;16.31;50.55
68107;BME280;54892;47.488;19.026;2023-05-11T19:11:27;100031.53;;;16.26;51.00